Latest Weather Observations for Canterbury

IDN60901

Issued at 12:41 pm EDT Friday 20 January 2017 (issued every 10 minutes, with the page automatically refreshed every 10 minutes)

About weather observations | Map of Sydney area stations | Latest observations for Sydney area | Other Formats
Station Details ID: 066194 Name: CANTERBURY RACECOURSE AWS Lat: -33.91 Lon: 151.11 Height: 3.0 m
Data from the previous 72 hours. | See also: Recent months at Canterbury
Date/Time
EDT
Temp
°C
App
Temp
°C
Dew
Point
°C
Rel
Hum
%
Delta-T
°C
Wind Press
QNH
hPa
Press
MSL
hPa
Rain since
9am
mm
Dir  Spd
km/h
Gust
km/h
Spd
kts
Gust
kts
20/12:30pm 22.4 25.2 20.5 89 1.2 NNE 6 11 3 6 - - 6.8
20/12:00pm 22.6 24.9 19.4 82 2.0 N 6 9 3 5 - - 1.8
20/11:40am 23.6 25.0 18.7 74 3.1 NNW 9 11 5 6 - - 0.2
20/11:30am 24.1 25.2 18.1 69 3.8 NNW 9 17 5 9 - - 0.0
20/11:00am 24.8 24.5 17.3 63 4.7 N 15 24 8 13 - - 0.0
20/10:30am 24.8 23.6 17.0 62 4.8 N 19 28 10 15 - - 0.0
20/10:00am 24.2 22.8 16.5 62 4.7 N 19 28 10 15 - - 0.0
20/09:30am 24.2 23.0 16.2 61 4.9 N 17 24 9 13 - - 0.0
20/09:00am 23.6 22.0 16.1 62 4.6 NE 19 24 10 13 - - 0.0
20/08:30am 22.8 21.7 16.4 67 3.9 NNE 17 24 9 13 - - 0.0
20/08:00am 22.2 20.5 15.8 67 3.8 N 19 26 10 14 - - 0.0
20/07:30am 22.2 21.0 16.0 68 3.7 N 17 24 9 13 - - 0.0
20/07:00am 21.7 20.5 16.0 70 3.4 NNW 17 26 9 14 - - 0.0
20/06:30am 21.8 20.6 16.1 70 3.4 N 17 28 9 15 - - 0.0
20/06:00am 21.8 21.4 16.1 70 3.4 N 13 20 7 11 - - 0.0
20/05:30am 21.8 21.4 16.1 70 3.4 N 13 19 7 10 - - 0.0
20/05:00am 22.0 21.6 16.1 69 3.6 N 13 19 7 10 - - 0.0
20/04:30am 22.0 21.5 15.8 68 3.7 N 13 28 7 15 - - 0.0
20/04:00am 22.0 21.4 15.6 67 3.8 N 13 17 7 9 - - 0.0
20/03:30am 22.0 20.6 15.6 67 3.8 N 17 26 9 14 - - 0.0
20/03:00am 21.9 21.2 15.3 66 3.9 NNE 13 24 7 13 - - 0.0
20/02:30am 21.9 21.2 15.3 66 3.9 NNE 13 22 7 12 - - 0.0
20/02:00am 21.5 21.3 15.6 69 3.5 N 11 17 6 9 - - 0.0
20/01:30am 20.9 22.0 16.7 77 2.5 NE 6 9 3 5 - - 0.0
20/01:00am 20.6 21.7 17.0 80 2.2 NNE 7 15 4 8 - - 0.0
20/12:30am 20.3 20.6 16.9 81 2.1 ENE 11 17 6 9 - - 0.0
20/12:00am 20.4 20.1 16.4 78 2.4 NE 13 20 7 11 - - 0.0
 
Date/Time
EDT
Temp
°C
App
Temp
°C
Dew
Point
°C
Rel
Hum
%
Delta-T
°C
Wind Press
QNH
hPa
Press
MSL
hPa
Rain since
9am
mm
Dir  Spd
km/h
Gust
km/h
Spd
kts
Gust
kts
19/11:30pm 20.7 19.5 16.1 75 2.8 NE 17 28 9 15 - - 0.0
19/11:00pm 21.3 20.2 15.4 69 3.5 NNE 15 26 8 14 - - 0.0
19/10:30pm 21.6 20.8 15.0 66 3.9 NNE 13 24 7 13 - - 0.0
19/10:00pm 21.7 19.6 14.6 64 4.2 NNE 19 28 10 15 - - 0.0
19/09:30pm 21.7 19.9 14.4 63 4.3 NNE 17 28 9 15 - - 0.0
19/09:00pm 21.8 19.8 13.9 61 4.6 NE 17 28 9 15 - - 0.0
19/08:30pm 21.8 19.4 13.9 61 4.6 ENE 19 30 10 16 - - 0.0
19/08:00pm 21.9 19.9 13.8 60 4.7 ENE 17 28 9 15 - - 0.0
19/07:30pm 21.8 19.3 13.4 59 4.8 ENE 19 30 10 16 - - 0.0
19/07:00pm 21.8 19.0 13.2 58 4.9 ENE 20 33 11 18 - - 0.0
19/06:30pm 21.9 19.2 13.0 57 5.1 ENE 19 28 10 15 - - 0.0
19/06:00pm 22.0 19.2 13.1 57 5.1 ENE 20 32 11 17 - - 0.0
19/05:30pm 22.1 19.4 12.9 56 5.3 ENE 19 28 10 15 - - 0.0
19/05:00pm 22.4 20.0 12.6 54 5.6 ENE 17 24 9 13 - - 0.0
19/04:30pm 22.4 20.0 12.6 54 5.6 ENE 17 30 9 16 - - 0.0
19/04:00pm 22.6 20.5 12.5 53 5.7 ENE 15 24 8 13 - - 0.0
19/03:30pm 22.4 19.5 12.4 53 5.7 NE 19 28 10 15 - - 0.0
19/03:00pm 22.3 19.5 12.5 53 5.6 ENE 19 32 10 17 - - 0.0
19/02:30pm 22.3 19.9 12.8 55 5.4 ENE 17 26 9 14 - - 0.0
19/02:00pm 22.5 20.2 13.0 55 5.4 ENE 17 30 9 16 - - 0.0
19/01:30pm 22.3 19.9 12.8 55 5.4 ENE 17 33 9 18 - - 0.0
19/01:00pm 22.3 21.4 13.6 58 5.0 NE 11 19 6 10 - - 0.0
19/12:30pm 22.4 20.8 14.0 59 4.9 ENE 15 22 8 12 - - 0.0
19/12:00pm 21.2 20.7 14.8 67 3.8 NE 11 19 6 10 - - 0.0
19/11:30am 19.7 18.6 15.4 76 2.5 ENE 15 26 8 14 - - 0.0
19/11:15am 19.4 18.4 15.7 79 2.2 E 15 24 8 13 - - 0.0
19/11:00am 20.5 20.1 15.3 72 3.1 E 11 24 6 13 - - 0.0
19/10:50am 20.2 20.3 15.6 75 2.7 E 9 19 5 10 - - 0.0
19/10:30am 19.0 17.5 16.2 84 1.7 E 19 26 10 14 - - 0.0
19/10:25am 19.3 17.6 16.2 82 1.9 E 20 26 11 14 - - 0.0
19/10:00am 20.0 18.2 15.4 75 2.7 ESE 19 24 10 13 - - 0.0
19/09:30am 20.7 21.9 13.9 65 3.9 CALM 0 6 0 3 - - 0.0
19/09:00am 20.6 21.3 13.3 63 4.2 SW 2 9 1 5 - - 0.0
19/08:30am 20.5 20.2 13.2 63 4.2 SW 7 11 4 6 - - 0.0
19/08:00am 20.3 19.5 13.0 63 4.1 W 9 15 5 8 - - 0.0
19/07:42am 20.3 19.6 13.3 64 4.0 WSW 9 15 5 8 - - 0.0
19/07:30am 20.2 19.4 12.9 63 4.1 WSW 9 13 5 7 - - 0.0
19/07:20am 20.1 19.4 13.1 64 4.0 W 9 13 5 7 - - 0.0
19/07:15am 20.2 19.5 13.2 64 4.0 W 9 13 5 7 - - 0.0
19/07:00am 20.1 19.4 13.1 64 4.0 W 9 13 5 7 - - 0.0
19/06:40am 20.0 19.2 13.0 64 4.0 W 9 15 5 8 - - 0.0
19/06:30am 20.1 19.6 12.8 63 4.1 W 7 13 4 7 - - 0.0
19/06:00am 20.3 19.0 12.5 61 4.4 SW 11 15 6 8 - - 0.0
19/05:30am 20.8 19.8 12.2 58 4.8 SW 9 17 5 9 - - 0.0
19/05:00am 20.9 19.9 12.3 58 4.8 SSW 9 11 5 6 - - 0.0
19/04:30am 20.9 19.9 12.3 58 4.8 SSW 9 15 5 8 - - 0.0
19/04:00am 21.0 19.7 12.4 58 4.8 S 11 17 6 9 - - 0.0
19/03:30am 21.1 19.2 11.7 55 5.2 S 13 22 7 12 - - 0.0
19/03:00am 21.2 18.8 11.5 54 5.4 SSE 15 26 8 14 - - 0.0
19/02:30am 21.2 19.4 12.1 56 5.1 SSE 13 20 7 11 - - 0.0
19/02:00am 21.2 18.2 12.1 56 5.1 SSE 19 28 10 15 - - 0.0
19/01:30am 21.2 18.6 12.1 56 5.1 SE 17 26 9 14 - - 0.0
19/01:00am 21.0 18.1 12.4 58 4.8 SSE 19 28 10 15 - - 0.0
19/12:30am 20.7 18.1 13.2 62 4.3 SSE 19 28 10 15 - - 0.0
19/12:00am 20.0 16.9 14.4 70 3.3 SE 24 41 13 22 - - 0.0
 
Date/Time
EDT
Temp
°C
App
Temp
°C
Dew
Point
°C
Rel
Hum
%
Delta-T
°C
Wind Press
QNH
hPa
Press
MSL
hPa
Rain since
9am
mm
Dir  Spd
km/h
Gust
km/h
Spd
kts
Gust
kts
18/11:41pm 20.3 18.2 15.3 73 3.0 SSE 20 33 11 18 - - 0.0
18/11:30pm 19.7 18.0 16.2 80 2.1 SE 20 35 11 19 - - 0.0
18/11:00pm 20.2 18.3 16.6 80 2.2 SE 22 30 12 16 - - 0.0
18/10:52pm 20.3 18.6 16.3 78 2.4 SE 20 28 11 15 - - 0.0
18/10:51pm 20.3 18.5 16.1 77 2.5 SE 20 28 11 15 - - 0.0
18/10:30pm 20.4 18.7 16.2 77 2.5 S 20 37 11 20 - - 0.0
18/10:24pm 20.8 19.1 16.2 75 2.8 SSE 20 37 11 20 - - 0.0
18/10:00pm 22.0 20.0 15.6 67 3.8 SSE 20 28 11 15 - - 0.0
18/09:56pm 21.9 20.1 15.5 67 3.8 SE 19 28 10 15 - - 0.0
18/09:45pm 21.5 20.3 16.0 71 3.3 SSE 17 28 9 15 - - 0.0
18/09:30pm 22.1 20.4 15.7 67 3.8 SSE 19 33 10 18 - - 0.0
18/09:00pm 22.3 20.5 15.9 67 3.9 SSE 20 33 11 18 - - 0.0
18/08:30pm 22.3 20.2 16.3 69 3.6 SSE 22 32 12 17 - - 0.0
18/08:00pm 22.6 20.1 16.2 67 3.9 SSE 24 44 13 24 - - 0.0
18/07:30pm 22.7 20.5 16.9 70 3.6 SSE 24 37 13 20 - - 0.0
18/07:00pm 23.0 20.2 17.2 70 3.6 SSE 28 43 15 23 - - 0.0
18/06:30pm 23.0 20.1 17.0 69 3.7 SSE 28 41 15 22 - - 0.0
18/06:00pm 23.5 19.9 17.7 70 3.6 SE 33 52 18 28 - - 0.0
18/05:30pm 24.4 21.7 17.6 66 4.2 SSE 28 50 15 27 - - 0.0
18/05:00pm 25.1 21.8 18.3 66 4.3 SE 33 54 18 29 - - 0.0
18/04:30pm 24.7 20.4 18.6 69 3.9 SSE 39 61 21 33 - - 0.0
18/04:00pm 26.3 22.6 19.2 65 4.6 SSE 37 57 20 31 - - 0.0
18/03:39pm 26.9 23.1 18.2 59 5.5 SSE 35 59 19 32 - - 0.0
18/03:30pm 26.6 23.2 18.2 60 5.3 SSE 33 46 18 25 - - 0.0
18/03:00pm 27.9 24.1 18.9 58 5.8 SSE 37 59 20 32 - - 0.0
18/02:30pm 27.8 24.2 18.5 57 5.9 SE 35 57 19 31 - - 0.0
18/02:19pm 27.4 22.3 17.8 55 6.1 SE 41 61 22 33 - - 0.0
18/02:00pm 27.5 22.6 17.4 54 6.3 SE 39 54 21 29 - - 0.0
18/01:45pm 28.0 23.8 17.2 52 6.8 SE 35 54 19 29 - - 0.0
18/01:30pm 28.3 23.6 16.9 50 7.1 SE 37 50 20 27 - - 0.0
18/01:00pm 29.6 25.9 17.4 47 7.7 SE 33 43 18 23 - - 0.0
18/12:30pm 30.4 27.5 17.1 44 8.4 ESE 28 39 15 21 - - 0.0
18/12:00pm 29.3 25.3 16.1 44 8.2 SE 32 44 17 24 - - 0.0
18/11:30am 29.7 27.0 16.5 45 8.2 SE 26 43 14 23 - - 0.0
18/11:02am 29.2 26.2 16.7 46 7.8 SE 28 46 15 25 - - 0.0
18/11:00am 29.3 26.3 16.8 47 7.8 SSE 28 39 15 21 - - 0.0
18/10:30am 28.8 27.4 18.9 55 6.4 SE 24 35 13 19 - - 0.0
18/10:00am 29.5 27.4 20.6 58 5.9 SE 32 44 17 24 - - 0.0
18/09:42am 32.8 33.1 19.7 46 8.6 WSW 17 35 9 19 - - 0.0
18/09:30am 38.0 35.9 15.2 26 14.4 W 20 35 11 19 - - 0.0
18/09:00am 37.2 34.3 15.1 27 13.9 WNW 24 39 13 21 - - 0.0
18/08:30am 35.3 34.7 15.6 31 12.4 NW 13 26 7 14 - - 0.0
18/08:00am 34.5 33.8 15.4 32 11.9 NW 13 24 7 13 - - 0.0
18/07:30am 33.3 32.9 15.3 34 11.2 NW 11 20 6 11 - - 0.0
18/07:00am 32.0 32.1 15.5 37 10.2 NNW 9 15 5 8 - - 0.0
18/06:30am 31.3 31.2 14.9 37 10.1 NW 9 15 5 8 - - 0.0
18/06:00am 28.3 29.1 17.2 51 7.0 NW 9 15 5 8 - - 0.0
18/05:30am 24.7 28.8 20.8 79 2.6 CALM 0 0 0 0 - - 0.0
18/05:00am 25.0 28.5 19.6 72 3.5 CALM 0 0 0 0 - - 0.0
18/04:30am 25.3 29.0 19.9 72 3.5 CALM 0 0 0 0 - - 0.0
18/04:00am 25.2 28.9 20.0 73 3.4 CALM 0 0 0 0 - - 0.0
18/03:30am 24.9 28.4 19.5 72 3.5 CALM 0 0 0 0 - - 0.0
18/03:00am 25.0 29.3 21.1 79 2.6 CALM 0 0 0 0 - - 0.0
18/02:30am 25.7 29.4 20.0 71 3.7 CALM 0 0 0 0 - - 0.0
18/02:00am 25.9 29.9 20.5 72 3.5 CALM 0 0 0 0 - - 0.0
18/01:30am 26.0 30.1 20.8 73 3.4 CALM 0 0 0 0 - - 0.0
18/01:00am 26.9 31.2 21.2 71 3.8 CALM 0 0 0 0 - - 0.0
18/12:30am 27.6 31.3 19.9 63 5.0 CALM 0 0 0 0 - - 0.0
18/12:00am 28.7 32.0 19.1 56 6.2 CALM 0 0 0 0 - - 0.0
 
Date/Time
EDT
Temp
°C
App
Temp
°C
Dew
Point
°C
Rel
Hum
%
Delta-T
°C
Wind Press
QNH
hPa
Press
MSL
hPa
Rain since
9am
mm
Dir  Spd
km/h
Gust
km/h
Spd
kts
Gust
kts
17/11:30pm 30.0 33.2 18.8 51 7.2 CALM 0 0 0 0 - - 0.0
17/11:00pm 29.8 32.7 18.3 50 7.4 CALM 0 0 0 0 - - 0.0
17/10:30pm 31.0 33.1 17.3 43 8.7 ESE 2 7 1 4 - - 0.0
17/10:00pm 31.5 31.4 17.0 41 9.2 E 13 20 7 11 - - 0.0
17/09:30pm 32.2 32.7 16.5 39 9.9 SSW 9 17 5 9 - - 0.0
17/09:00pm 32.6 32.3 16.4 37 10.2 SE 13 24 7 13 - - 0.0
17/08:30pm 32.8 32.0 17.0 38 10.0 NNE 17 26 9 14 - - 0.0
17/08:00pm 32.9 31.9 16.7 38 10.3 NNE 17 28 9 15 - - 0.0
17/07:30pm 33.2 31.6 16.5 36 10.6 NNE 20 32 11 17 - - 0.0
17/07:00pm 34.3 32.6 16.2 34 11.4 NNE 20 35 11 19 - - 0.0
17/06:30pm 35.6 33.8 15.9 31 12.4 NNE 20 30 11 16 - - 0.0
17/06:00pm 36.4 34.0 16.5 30 12.7 NNE 24 37 13 20 - - 0.0
17/05:30pm 36.7 34.5 16.8 30 12.8 NNE 24 44 13 24 - - 0.0
17/05:00pm 36.3 33.4 17.0 32 12.4 NNE 28 37 15 20 - - 0.0
17/04:30pm 36.4 34.7 18.0 33 12.0 NNE 24 37 13 20 - - 0.0
17/04:00pm 36.2 34.4 17.8 33 12.0 NE 24 35 13 19 - - 0.0
17/03:30pm 36.0 35.5 18.6 36 11.4 NE 19 26 10 14 - - 0.0
17/03:00pm 37.2 36.3 18.2 32 12.4 ENE 20 30 11 16 - - 0.0
17/02:30pm 37.5 36.1 18.0 31 12.8 ENE 22 28 12 15 - - 0.0
17/02:00pm 37.0 36.2 18.5 33 12.2 ENE 20 26 11 14 - - 0.0
17/01:30pm 38.2 38.4 17.6 30 13.4 NE 13 20 7 11 - - 0.0
17/01:00pm 37.6 39.0 18.6 33 12.5 N 9 20 5 11 - - 0.0

Latest Capital City Observations: Canberra | Sydney | Melbourne | Brisbane | Adelaide | Perth | Hobart | Darwin

Other Formats:

Comma delimited format used in spreadsheet applications
http://www.bom.gov.au/fwo/IDN60901/IDN60901.94766.axf

JavaScript Object Notation format (JSON) in row-major order
http://www.bom.gov.au/fwo/IDN60901/IDN60901.94766.json